sensor_id;sensor_type;location;lat;lon;timestamp;pressure;altitude;pressure_sealevel;temperature;humidity
29121;BME280;16191;49.548;8.658;2022-08-19T00:01:58;99982.75;;;21.81;90.49
29121;BME280;16191;49.548;8.658;2022-08-19T00:04:35;99978.84;;;21.76;90.85
29121;BME280;16191;49.548;8.658;2022-08-19T00:07:06;99992.56;;;21.81;90.75
29121;BME280;16191;49.548;8.658;2022-08-19T00:09:33;99980.53;;;21.86;90.51
29121;BME280;16191;49.548;8.658;2022-08-19T00:12:00;99967.09;;;21.78;90.97
29121;BME280;16191;49.548;8.658;2022-08-19T00:14:28;99947.13;;;21.84;90.46
29121;BME280;16191;49.548;8.658;2022-08-19T00:16:57;99939.84;;;21.76;91.41
29121;BME280;16191;49.548;8.658;2022-08-19T00:19:25;99930.47;;;21.72;92.20
29121;BME280;16191;49.548;8.658;2022-08-19T00:21:52;99925.91;;;21.65;93.64
29121;BME280;16191;49.548;8.658;2022-08-19T00:24:19;99916.22;;;21.73;93.75
29121;BME280;16191;49.548;8.658;2022-08-19T00:26:46;99905.19;;;21.68;94.87
29121;BME280;16191;49.548;8.658;2022-08-19T00:29:15;99910.91;;;21.73;94.87
29121;BME280;16191;49.548;8.658;2022-08-19T00:31:43;99909.38;;;21.71;95.71
29121;BME280;16191;49.548;8.658;2022-08-19T00:34:12;99925.16;;;21.72;95.98
29121;BME280;16191;49.548;8.658;2022-08-19T00:36:42;99921.41;;;21.55;97.19
29121;BME280;16191;49.548;8.658;2022-08-19T00:39:09;99937.91;;;21.59;97.11
29121;BME280;16191;49.548;8.658;2022-08-19T00:41:56;99934.41;;;21.59;96.99
29121;BME280;16191;49.548;8.658;2022-08-19T00:44:44;99929.34;;;21.65;96.49
29121;BME280;16191;49.548;8.658;2022-08-19T00:47:30;99927.84;;;21.63;96.50
29121;BME280;16191;49.548;8.658;2022-08-19T00:50:19;99926.03;;;21.63;96.96
29121;BME280;16191;49.548;8.658;2022-08-19T00:53:07;99935.94;;;21.61;97.21
29121;BME280;16191;49.548;8.658;2022-08-19T00:55:56;99929.25;;;21.57;97.27
29121;BME280;16191;49.548;8.658;2022-08-19T00:58:27;99931.06;;;21.57;97.44
29121;BME280;16191;49.548;8.658;2022-08-19T01:00:55;99924.91;;;21.56;97.39
29121;BME280;16191;49.548;8.658;2022-08-19T01:03:22;99937.34;;;21.55;97.88
29121;BME280;16191;49.548;8.658;2022-08-19T01:05:50;99935.97;;;21.42;98.86
29121;BME280;16191;49.548;8.658;2022-08-19T01:08:19;99939.72;;;21.49;98.37
29121;BME280;16191;49.548;8.658;2022-08-19T01:10:58;99935.38;;;21.48;98.50
29121;BME280;16191;49.548;8.658;2022-08-19T01:13:28;99927.28;;;21.40;99.58
29121;BME280;16191;49.548;8.658;2022-08-19T01:16:14;99922.81;;;21.50;99.29
29121;BME280;16191;49.548;8.658;2022-08-19T01:18:43;99921.25;;;21.47;98.90
29121;BME280;16191;49.548;8.658;2022-08-19T01:21:21;99921.97;;;21.49;99.00
29121;BME280;16191;49.548;8.658;2022-08-19T01:23:50;99926.00;;;21.44;99.44
29121;BME280;16191;49.548;8.658;2022-08-19T01:26:20;99931.19;;;21.45;99.25
29121;BME280;16191;49.548;8.658;2022-08-19T01:28:51;99932.56;;;21.30;100.00
29121;BME280;16191;49.548;8.658;2022-08-19T01:31:22;99944.47;;;21.36;100.00
29121;BME280;16191;49.548;8.658;2022-08-19T01:33:55;99940.56;;;21.40;100.00
29121;BME280;16191;49.548;8.658;2022-08-19T01:36:26;99939.59;;;21.41;100.00
29121;BME280;16191;49.548;8.658;2022-08-19T01:38:54;99946.84;;;21.39;100.00
29121;BME280;16191;49.548;8.658;2022-08-19T01:41:21;99951.03;;;21.41;99.85
29121;BME280;16191;49.548;8.658;2022-08-19T01:43:49;99945.59;;;21.43;99.92
29121;BME280;16191;49.548;8.658;2022-08-19T01:46:37;99944.31;;;21.47;99.91
29121;BME280;16191;49.548;8.658;2022-08-19T01:49:05;99939.44;;;21.42;99.88
29121;BME280;16191;49.548;8.658;2022-08-19T01:51:32;99944.47;;;21.55;98.90
29121;BME280;16191;49.548;8.658;2022-08-19T01:54:10;99931.75;;;21.49;99.38
29121;BME280;16191;49.548;8.658;2022-08-19T01:56:37;99928.97;;;21.41;100.00
29121;BME280;16191;49.548;8.658;2022-08-19T01:59:09;99934.13;;;21.42;100.00
29121;BME280;16191;49.548;8.658;2022-08-19T02:01:36;99926.59;;;21.38;100.00
29121;BME280;16191;49.548;8.658;2022-08-19T02:04:03;99941.25;;;21.42;100.00
29121;BME280;16191;49.548;8.658;2022-08-19T02:06:32;99938.47;;;21.43;99.88
29121;BME280;16191;49.548;8.658;2022-08-19T02:08:59;99944.59;;;21.44;100.00
29121;BME280;16191;49.548;8.658;2022-08-19T02:11:29;99944.31;;;21.37;100.00
29121;BME280;16191;49.548;8.658;2022-08-19T02:13:58;99945.03;;;21.39;100.00
29121;BME280;16191;49.548;8.658;2022-08-19T02:16:25;99944.03;;;21.31;100.00
29121;BME280;16191;49.548;8.658;2022-08-19T02:18:51;99945.56;;;21.33;100.00
29121;BME280;16191;49.548;8.658;2022-08-19T02:21:20;99952.97;;;21.30;100.00
29121;BME280;16191;49.548;8.658;2022-08-19T02:23:47;99946.97;;;21.28;100.00
29121;BME280;16191;49.548;8.658;2022-08-19T02:26:15;99948.50;;;21.30;100.00
29121;BME280;16191;49.548;8.658;2022-08-19T02:28:42;99942.91;;;21.24;100.00
29121;BME280;16191;49.548;8.658;2022-08-19T02:31:12;99949.63;;;21.28;100.00
29121;BME280;16191;49.548;8.658;2022-08-19T02:33:41;99955.31;;;21.23;100.00
29121;BME280;16191;49.548;8.658;2022-08-19T02:36:09;99956.03;;;21.25;100.00
29121;BME280;16191;49.548;8.658;2022-08-19T02:38:38;99973.06;;;21.23;100.00
29121;BME280;16191;49.548;8.658;2022-08-19T02:41:10;99969.16;;;21.27;100.00
29121;BME280;16191;49.548;8.658;2022-08-19T02:43:37;99950.72;;;21.25;100.00
29121;BME280;16191;49.548;8.658;2022-08-19T02:46:14;99942.06;;;21.23;100.00
29121;BME280;16191;49.548;8.658;2022-08-19T02:48:41;99944.53;;;21.05;100.00
29121;BME280;16191;49.548;8.658;2022-08-19T02:51:07;99947.31;;;21.04;100.00
29121;BME280;16191;49.548;8.658;2022-08-19T02:53:36;99952.47;;;20.96;100.00
29121;BME280;16191;49.548;8.658;2022-08-19T02:56:06;99949.56;;;20.99;100.00
29121;BME280;16191;49.548;8.658;2022-08-19T02:58:33;99953.31;;;21.06;100.00
29121;BME280;16191;49.548;8.658;2022-08-19T03:00:59;99950.13;;;21.12;100.00
29121;BME280;16191;49.548;8.658;2022-08-19T03:03:26;99949.41;;;21.10;100.00
29121;BME280;16191;49.548;8.658;2022-08-19T03:06:13;99949.41;;;21.10;100.00
29121;BME280;16191;49.548;8.658;2022-08-19T03:08:43;99946.50;;;21.13;100.00
29121;BME280;16191;49.548;8.658;2022-08-19T03:13:47;99935.72;;;21.05;100.00
29121;BME280;16191;49.548;8.658;2022-08-19T03:16:15;99932.78;;;20.98;100.00
29121;BME280;16191;49.548;8.658;2022-08-19T03:18:42;99931.38;;;20.94;100.00
29121;BME280;16191;49.548;8.658;2022-08-19T03:21:09;99943.81;;;20.94;100.00
29121;BME280;16191;49.548;8.658;2022-08-19T03:23:38;99946.47;;;20.94;100.00
29121;BME280;16191;49.548;8.658;2022-08-19T03:26:06;99944.91;;;20.91;100.00
29121;BME280;16191;49.548;8.658;2022-08-19T03:28:43;99946.28;;;20.85;100.00
29121;BME280;16191;49.548;8.658;2022-08-19T03:31:20;99951.03;;;20.82;100.00
29121;BME280;16191;49.548;8.658;2022-08-19T03:34:15;99952.69;;;20.83;100.00
29121;BME280;16191;49.548;8.658;2022-08-19T03:36:44;99945.44;;;20.75;100.00
29121;BME280;16191;49.548;8.658;2022-08-19T03:39:11;99944.28;;;20.68;100.00
29121;BME280;16191;49.548;8.658;2022-08-19T03:41:39;99949.72;;;20.67;100.00
29121;BME280;16191;49.548;8.658;2022-08-19T03:44:16;99953.59;;;20.63;100.00
29121;BME280;16191;49.548;8.658;2022-08-19T03:46:51;99965.19;;;20.62;100.00
29121;BME280;16191;49.548;8.658;2022-08-19T03:49:18;99969.34;;;20.55;100.00
29121;BME280;16191;49.548;8.658;2022-08-19T03:51:47;99966.00;;;20.52;100.00
29121;BME280;16191;49.548;8.658;2022-08-19T03:54:17;99971.72;;;20.58;100.00
29121;BME280;16191;49.548;8.658;2022-08-19T03:56:46;99973.94;;;20.52;100.00
29121;BME280;16191;49.548;8.658;2022-08-19T03:59:17;99982.63;;;20.55;100.00
29121;BME280;16191;49.548;8.658;2022-08-19T04:01:43;99972.97;;;20.53;100.00
29121;BME280;16191;49.548;8.658;2022-08-19T04:04:10;99981.06;;;20.52;100.00
29121;BME280;16191;49.548;8.658;2022-08-19T04:06:38;99972.28;;;20.51;100.00
29121;BME280;16191;49.548;8.658;2022-08-19T04:09:08;99977.31;;;20.55;100.00
29121;BME280;16191;49.548;8.658;2022-08-19T04:11:44;99964.31;;;20.51;100.00
29121;BME280;16191;49.548;8.658;2022-08-19T04:14:14;99977.25;;;20.45;100.00
29121;BME280;16191;49.548;8.658;2022-08-19T04:16:41;99978.47;;;20.20;100.00
29121;BME280;16191;49.548;8.658;2022-08-19T04:19:07;99975.75;;;20.31;100.00
29121;BME280;16191;49.548;8.658;2022-08-19T04:21:34;99975.13;;;20.39;100.00
29121;BME280;16191;49.548;8.658;2022-08-19T04:24:01;99979.44;;;20.40;100.00
29121;BME280;16191;49.548;8.658;2022-08-19T04:26:34;99980.88;;;20.44;100.00
29121;BME280;16191;49.548;8.658;2022-08-19T04:29:04;99976.41;;;20.44;100.00
29121;BME280;16191;49.548;8.658;2022-08-19T04:31:37;99969.56;;;20.42;100.00
29121;BME280;16191;49.548;8.658;2022-08-19T04:34:06;99964.66;;;20.37;100.00
29121;BME280;16191;49.548;8.658;2022-08-19T04:36:35;99968.13;;;20.38;100.00
29121;BME280;16191;49.548;8.658;2022-08-19T04:39:09;99969.09;;;20.37;100.00
29121;BME280;16191;49.548;8.658;2022-08-19T04:41:36;99980.53;;;20.37;100.00
29121;BME280;16191;49.548;8.658;2022-08-19T04:44:21;99969.50;;;20.32;100.00
29121;BME280;16191;49.548;8.658;2022-08-19T04:46:49;99966.00;;;20.32;100.00
29121;BME280;16191;49.548;8.658;2022-08-19T04:49:20;99959.41;;;20.26;100.00
29121;BME280;16191;49.548;8.658;2022-08-19T04:51:49;99959.16;;;20.29;100.00
29121;BME280;16191;49.548;8.658;2022-08-19T04:54:18;99961.09;;;20.27;100.00
29121;BME280;16191;49.548;8.658;2022-08-19T04:57:06;99963.03;;;20.25;100.00
29121;BME280;16191;49.548;8.658;2022-08-19T04:59:34;99962.66;;;20.30;100.00
29121;BME280;16191;49.548;8.658;2022-08-19T05:02:00;99967.81;;;20.31;100.00
29121;BME280;16191;49.548;8.658;2022-08-19T05:04:27;99974.66;;;20.34;100.00
29121;BME280;16191;49.548;8.658;2022-08-19T05:06:59;99971.84;;;20.35;100.00
29121;BME280;16191;49.548;8.658;2022-08-19T05:09:28;99968.13;;;20.38;100.00
29121;BME280;16191;49.548;8.658;2022-08-19T05:12:15;99968.69;;;20.11;100.00
29121;BME280;16191;49.548;8.658;2022-08-19T05:14:42;99971.44;;;20.30;100.00
29121;BME280;16191;49.548;8.658;2022-08-19T05:17:10;99975.50;;;20.34;100.00
29121;BME280;16191;49.548;8.658;2022-08-19T05:19:54;99980.41;;;20.39;100.00
29121;BME280;16191;49.548;8.658;2022-08-19T05:22:40;99987.28;;;20.41;100.00
29121;BME280;16191;49.548;8.658;2022-08-19T05:25:11;99987.53;;;20.38;100.00
29121;BME280;16191;49.548;8.658;2022-08-19T05:27:39;99979.13;;;20.33;100.00
29121;BME280;16191;49.548;8.658;2022-08-19T05:30:06;99981.25;;;20.39;100.00
29121;BME280;16191;49.548;8.658;2022-08-19T05:32:33;99973.03;;;20.42;100.00
29121;BME280;16191;49.548;8.658;2022-08-19T05:35:00;99984.50;;;20.43;100.00
29121;BME280;16191;49.548;8.658;2022-08-19T05:37:27;99988.69;;;20.45;100.00
29121;BME280;16191;49.548;8.658;2022-08-19T05:39:54;100000.19;;;20.56;100.00
29121;BME280;16191;49.548;8.658;2022-08-19T05:42:21;100000.72;;;20.49;100.00
29121;BME280;16191;49.548;8.658;2022-08-19T05:44:50;100003.53;;;20.58;100.00
29121;BME280;16191;49.548;8.658;2022-08-19T05:47:18;100011.94;;;20.63;100.00
29121;BME280;16191;49.548;8.658;2022-08-19T05:49:47;100001.06;;;20.66;100.00
29121;BME280;16191;49.548;8.658;2022-08-19T05:52:18;100005.06;;;20.60;100.00
29121;BME280;16191;49.548;8.658;2022-08-19T05:54:50;100019.88;;;20.63;100.00
29121;BME280;16191;49.548;8.658;2022-08-19T05:57:18;100028.03;;;20.71;100.00
29121;BME280;16191;49.548;8.658;2022-08-19T05:59:45;100025.69;;;20.77;100.00
29121;BME280;16191;49.548;8.658;2022-08-19T06:02:28;100032.25;;;20.83;100.00
29121;BME280;16191;49.548;8.658;2022-08-19T06:04:56;100036.31;;;20.87;100.00
29121;BME280;16191;49.548;8.658;2022-08-19T06:07:23;100038.97;;;20.87;100.00
29121;BME280;16191;49.548;8.658;2022-08-19T06:09:49;100045.72;;;20.91;100.00
29121;BME280;16191;49.548;8.658;2022-08-19T06:12:34;100049.06;;;20.93;100.00
29121;BME280;16191;49.548;8.658;2022-08-19T06:15:05;100051.00;;;20.91;100.00
29121;BME280;16191;49.548;8.658;2022-08-19T06:17:32;100053.41;;;20.94;100.00
29121;BME280;16191;49.548;8.658;2022-08-19T06:20:06;100061.09;;;20.97;100.00
29121;BME280;16191;49.548;8.658;2022-08-19T06:22:38;100061.69;;;21.10;100.00
29121;BME280;16191;49.548;8.658;2022-08-19T06:25:05;100063.94;;;21.15;100.00
29121;BME280;16191;49.548;8.658;2022-08-19T06:27:32;100064.41;;;21.20;99.74
29121;BME280;16191;49.548;8.658;2022-08-19T06:29:59;100061.63;;;21.22;100.00
29121;BME280;16191;49.548;8.658;2022-08-19T06:32:26;100067.75;;;21.22;100.00
29121;BME280;16191;49.548;8.658;2022-08-19T06:34:52;100080.00;;;21.13;100.00
29121;BME280;16191;49.548;8.658;2022-08-19T06:37:19;100084.06;;;21.17;100.00
29121;BME280;16191;49.548;8.658;2022-08-19T06:39:49;100088.84;;;21.24;99.43
29121;BME280;16191;49.548;8.658;2022-08-19T06:42:15;100086.50;;;21.20;100.00
29121;BME280;16191;49.548;8.658;2022-08-19T06:44:47;100086.50;;;21.30;99.45
29121;BME280;16191;49.548;8.658;2022-08-19T06:47:20;100084.75;;;21.40;98.77
29121;BME280;16191;49.548;8.658;2022-08-19T06:49:55;100086.44;;;21.51;97.99
29121;BME280;16191;49.548;8.658;2022-08-19T06:52:33;100090.06;;;21.50;97.77
29121;BME280;16191;49.548;8.658;2022-08-19T06:55:04;100090.34;;;21.57;97.85
29121;BME280;16191;49.548;8.658;2022-08-19T06:57:32;100093.28;;;21.53;97.25
29121;BME280;16191;49.548;8.658;2022-08-19T06:59:59;100103.63;;;21.57;97.66
29121;BME280;16191;49.548;8.658;2022-08-19T07:02:26;100102.97;;;21.74;96.94
29121;BME280;16191;49.548;8.658;2022-08-19T07:04:53;100103.25;;;21.80;96.87
29121;BME280;16191;49.548;8.658;2022-08-19T07:07:20;100098.91;;;21.89;96.30
29121;BME280;16191;49.548;8.658;2022-08-19T07:09:49;100095.28;;;21.80;95.85
29121;BME280;16191;49.548;8.658;2022-08-19T07:12:31;100088.88;;;21.93;95.79
29121;BME280;16191;49.548;8.658;2022-08-19T07:15:03;100092.53;;;22.01;96.01
29121;BME280;16191;49.548;8.658;2022-08-19T07:17:30;100080.09;;;22.02;95.33
29121;BME280;16191;49.548;8.658;2022-08-19T07:20:00;100076.31;;;22.04;94.23
29121;BME280;16191;49.548;8.658;2022-08-19T07:22:34;100077.03;;;22.06;94.16
29121;BME280;16191;49.548;8.658;2022-08-19T07:25:02;100074.91;;;22.10;93.73
29121;BME280;16191;49.548;8.658;2022-08-19T07:27:29;100074.78;;;22.11;92.76
29121;BME280;16191;49.548;8.658;2022-08-19T07:29:59;100074.75;;;22.31;91.37
29121;BME280;16191;49.548;8.658;2022-08-19T07:32:26;100073.91;;;22.30;91.46
29121;BME280;16191;49.548;8.658;2022-08-19T07:34:53;100082.19;;;22.27;92.10
29121;BME280;16191;49.548;8.658;2022-08-19T07:37:23;100079.53;;;22.27;90.70
29121;BME280;16191;49.548;8.658;2022-08-19T07:39:54;100072.78;;;22.42;90.59
29121;BME280;16191;49.548;8.658;2022-08-19T07:42:21;100069.28;;;22.51;89.74
29121;BME280;16191;49.548;8.658;2022-08-19T07:44:48;100075.59;;;22.50;89.91
29121;BME280;16191;49.548;8.658;2022-08-19T07:47:16;100068.97;;;22.54;90.09
29121;BME280;16191;49.548;8.658;2022-08-19T07:50:07;100066.72;;;22.60;89.51
29121;BME280;16191;49.548;8.658;2022-08-19T07:52:34;100081.75;;;22.41;90.61
29121;BME280;16191;49.548;8.658;2022-08-19T07:55:03;100089.28;;;22.55;88.62
29121;BME280;16191;49.548;8.658;2022-08-19T07:57:30;100089.03;;;22.49;89.02
29121;BME280;16191;49.548;8.658;2022-08-19T07:59:57;100098.66;;;22.60;88.13
29121;BME280;16191;49.548;8.658;2022-08-19T08:02:23;100079.03;;;22.80;87.49
29121;BME280;16191;49.548;8.658;2022-08-19T08:04:50;100076.53;;;22.69;87.51
29121;BME280;16191;49.548;8.658;2022-08-19T08:07:35;100089.22;;;22.94;86.89
29121;BME280;16191;49.548;8.658;2022-08-19T08:10:20;100084.59;;;23.23;85.30
29121;BME280;16191;49.548;8.658;2022-08-19T08:12:50;100075.50;;;23.53;84.13
29121;BME280;16191;49.548;8.658;2022-08-19T08:15:38;100073.84;;;23.70;82.21
29121;BME280;16191;49.548;8.658;2022-08-19T08:18:09;100070.59;;;23.76;81.43
29121;BME280;16191;49.548;8.658;2022-08-19T08:20:36;100068.66;;;23.69;81.34
29121;BME280;16191;49.548;8.658;2022-08-19T08:23:03;100072.75;;;23.63;81.10
29121;BME280;16191;49.548;8.658;2022-08-19T08:25:49;100073.84;;;24.06;81.14
29121;BME280;16191;49.548;8.658;2022-08-19T08:28:19;100069.44;;;24.14;79.36
29121;BME280;16191;49.548;8.658;2022-08-19T08:30:47;100079.06;;;24.51;78.58
29121;BME280;16191;49.548;8.658;2022-08-19T08:33:19;100071.75;;;24.53;75.73
29121;BME280;16191;49.548;8.658;2022-08-19T08:36:07;100065.28;;;24.81;74.83
29121;BME280;16191;49.548;8.658;2022-08-19T08:38:36;100058.66;;;24.93;73.88
29121;BME280;16191;49.548;8.658;2022-08-19T08:43:52;100061.41;;;25.02;72.09
29121;BME280;16191;49.548;8.658;2022-08-19T08:46:24;100071.22;;;25.35;71.28
29121;BME280;16191;49.548;8.658;2022-08-19T08:49:06;100082.13;;;25.50;69.44
29121;BME280;16191;49.548;8.658;2022-08-19T08:51:54;100068.09;;;25.56;67.73
29121;BME280;16191;49.548;8.658;2022-08-19T08:54:33;100083.22;;;25.73;66.39
29121;BME280;16191;49.548;8.658;2022-08-19T08:57:04;100082.44;;;25.47;66.48
29121;BME280;16191;49.548;8.658;2022-08-19T08:59:35;100085.31;;;25.11;68.25
29121;BME280;16191;49.548;8.658;2022-08-19T09:02:03;100091.09;;;25.33;66.88
29121;BME280;16191;49.548;8.658;2022-08-19T09:04:30;100086.91;;;25.38;65.64
29121;BME280;16191;49.548;8.658;2022-08-19T09:07:09;100088.94;;;25.44;66.03
29121;BME280;16191;49.548;8.658;2022-08-19T09:13:07;100091.78;;;25.93;64.72
29121;BME280;16191;49.548;8.658;2022-08-19T09:15:40;100083.56;;;25.78;64.34
29121;BME280;16191;49.548;8.658;2022-08-19T09:18:08;100082.19;;;25.66;63.86
29121;BME280;16191;49.548;8.658;2022-08-19T09:20:45;100074.63;;;26.36;60.16
29121;BME280;16191;49.548;8.658;2022-08-19T09:23:13;100070.94;;;26.37;60.44
29121;BME280;16191;49.548;8.658;2022-08-19T09:25:40;100074.13;;;26.33;58.88
29121;BME280;16191;49.548;8.658;2022-08-19T09:28:07;100083.09;;;26.64;58.84
29121;BME280;16191;49.548;8.658;2022-08-19T09:30:52;100085.09;;;26.21;58.88
29121;BME280;16191;49.548;8.658;2022-08-19T09:33:19;100069.69;;;26.72;57.48
29121;BME280;16191;49.548;8.658;2022-08-19T09:35:46;100078.16;;;27.08;56.07
29121;BME280;16191;49.548;8.658;2022-08-19T09:38:20;100077.19;;;27.01;55.81
29121;BME280;16191;49.548;8.658;2022-08-19T09:40:47;100081.91;;;27.30;54.42
29121;BME280;16191;49.548;8.658;2022-08-19T09:43:13;100065.47;;;27.41;52.76
29121;BME280;16191;49.548;8.658;2022-08-19T09:45:40;100080.44;;;27.67;53.26
29121;BME280;16191;49.548;8.658;2022-08-19T09:48:06;100076.84;;;27.74;52.11
29121;BME280;16191;49.548;8.658;2022-08-19T09:50:36;100082.13;;;28.13;51.32
29121;BME280;16191;49.548;8.658;2022-08-19T09:53:17;100070.94;;;28.33;49.72
29121;BME280;16191;49.548;8.658;2022-08-19T09:55:56;100066.41;;;28.33;49.22
29121;BME280;16191;49.548;8.658;2022-08-19T09:58:23;100068.13;;;28.03;50.65
29121;BME280;16191;49.548;8.658;2022-08-19T10:01:04;100070.78;;;27.80;49.60
29121;BME280;16191;49.548;8.658;2022-08-19T10:03:36;100068.16;;;27.72;49.69
29121;BME280;16191;49.548;8.658;2022-08-19T10:06:05;100052.03;;;28.03;47.86
29121;BME280;16191;49.548;8.658;2022-08-19T10:08:42;100065.28;;;28.19;48.30
29121;BME280;16191;49.548;8.658;2022-08-19T10:11:16;100061.91;;;28.63;47.25
29121;BME280;16191;49.548;8.658;2022-08-19T10:14:04;100056.81;;;28.53;47.11
29121;BME280;16191;49.548;8.658;2022-08-19T10:16:36;100059.72;;;29.11;45.45
29121;BME280;16191;49.548;8.658;2022-08-19T10:19:05;100062.88;;;28.99;44.45
29121;BME280;16191;49.548;8.658;2022-08-19T10:21:33;100062.31;;;29.19;43.55
29121;BME280;16191;49.548;8.658;2022-08-19T10:24:04;100058.63;;;28.90;43.79
29121;BME280;16191;49.548;8.658;2022-08-19T10:26:34;100058.53;;;28.98;44.18
29121;BME280;16191;49.548;8.658;2022-08-19T10:29:03;100062.91;;;29.65;42.79
29121;BME280;16191;49.548;8.658;2022-08-19T10:31:37;100055.88;;;29.49;43.90
29121;BME280;16191;49.548;8.658;2022-08-19T10:34:24;100067.13;;;29.74;42.30
29121;BME280;16191;49.548;8.658;2022-08-19T10:36:55;100068.06;;;28.86;43.45
29121;BME280;16191;49.548;8.658;2022-08-19T10:39:28;100068.94;;;28.64;44.93
29121;BME280;16191;49.548;8.658;2022-08-19T10:41:56;100064.41;;;28.64;44.99
29121;BME280;16191;49.548;8.658;2022-08-19T10:44:23;100056.69;;;28.99;43.58
29121;BME280;16191;49.548;8.658;2022-08-19T10:46:57;100054.84;;;29.65;42.44
29121;BME280;16191;49.548;8.658;2022-08-19T10:49:25;100051.56;;;29.19;42.61
29121;BME280;16191;49.548;8.658;2022-08-19T10:51:54;100061.09;;;29.72;41.98
29121;BME280;16191;49.548;8.658;2022-08-19T10:54:47;100050.13;;;30.59;40.63
29121;BME280;16191;49.548;8.658;2022-08-19T10:57:34;100052.66;;;30.18;40.63
29121;BME280;16191;49.548;8.658;2022-08-19T11:00:22;100048.53;;;30.43;40.78
29121;BME280;16191;49.548;8.658;2022-08-19T11:02:49;100057.00;;;29.76;41.17
29121;BME280;16191;49.548;8.658;2022-08-19T11:05:16;100041.53;;;29.27;42.59
29121;BME280;16191;49.548;8.658;2022-08-19T11:07:44;100038.69;;;29.44;41.23
29121;BME280;16191;49.548;8.658;2022-08-19T11:10:13;100031.88;;;29.69;40.58
29121;BME280;16191;49.548;8.658;2022-08-19T11:12:46;100022.28;;;30.52;39.67
29121;BME280;16191;49.548;8.658;2022-08-19T11:15:14;100013.06;;;30.12;40.07
29121;BME280;16191;49.548;8.658;2022-08-19T11:17:41;99999.78;;;30.94;38.97
29121;BME280;16191;49.548;8.658;2022-08-19T11:20:13;100011.69;;;31.13;38.41
29121;BME280;16191;49.548;8.658;2022-08-19T11:22:40;99999.50;;;30.82;39.24
29121;BME280;16191;49.548;8.658;2022-08-19T11:25:09;100003.91;;;30.55;38.10
29121;BME280;16191;49.548;8.658;2022-08-19T11:27:40;100004.28;;;30.24;38.97
29121;BME280;16191;49.548;8.658;2022-08-19T11:30:12;100001.44;;;30.05;39.06
29121;BME280;16191;49.548;8.658;2022-08-19T11:32:41;100009.25;;;29.78;40.23
29121;BME280;16191;49.548;8.658;2022-08-19T11:35:14;100013.94;;;30.75;39.20
29121;BME280;16191;49.548;8.658;2022-08-19T11:37:42;100008.97;;;30.72;38.07
29121;BME280;16191;49.548;8.658;2022-08-19T11:40:09;100002.63;;;30.86;38.68
29121;BME280;16191;49.548;8.658;2022-08-19T11:42:36;99999.69;;;30.74;38.33
29121;BME280;16191;49.548;8.658;2022-08-19T11:45:27;100006.09;;;29.96;39.25
29121;BME280;16191;49.548;8.658;2022-08-19T11:47:54;100001.50;;;30.67;39.35
29121;BME280;16191;49.548;8.658;2022-08-19T11:50:22;100001.25;;;31.03;37.42
29121;BME280;16191;49.548;8.658;2022-08-19T11:52:49;100001.00;;;30.29;38.93
29121;BME280;16191;49.548;8.658;2022-08-19T11:55:17;100007.41;;;30.90;37.71
29121;BME280;16191;49.548;8.658;2022-08-19T11:57:45;99998.84;;;31.82;36.12
29121;BME280;16191;49.548;8.658;2022-08-19T12:00:13;100002.13;;;31.84;35.81
29121;BME280;16191;49.548;8.658;2022-08-19T12:02:40;100000.06;;;31.73;36.13
29121;BME280;16191;49.548;8.658;2022-08-19T12:05:07;99980.78;;;32.02;35.39
29121;BME280;16191;49.548;8.658;2022-08-19T12:07:39;100001.28;;;29.91;38.22
29121;BME280;16191;49.548;8.658;2022-08-19T12:10:06;99999.69;;;30.46;37.48
29121;BME280;16191;49.548;8.658;2022-08-19T12:12:34;99994.88;;;30.70;38.07
29121;BME280;16191;49.548;8.658;2022-08-19T12:15:00;100008.97;;;30.16;38.65
29121;BME280;16191;49.548;8.658;2022-08-19T12:17:27;99998.25;;;30.85;37.40
29121;BME280;16191;49.548;8.658;2022-08-19T12:19:54;99986.88;;;31.44;36.22
29121;BME280;16191;49.548;8.658;2022-08-19T12:22:21;100003.31;;;30.94;37.14
29121;BME280;16191;49.548;8.658;2022-08-19T12:24:48;100002.88;;;31.39;35.80
29121;BME280;16191;49.548;8.658;2022-08-19T12:27:17;100004.78;;;30.62;35.72
29121;BME280;16191;49.548;8.658;2022-08-19T12:30:06;100012.78;;;30.00;37.40
29121;BME280;16191;49.548;8.658;2022-08-19T12:32:33;100012.41;;;29.88;36.28
29121;BME280;16191;49.548;8.658;2022-08-19T12:35:00;100007.97;;;31.20;34.50
29121;BME280;16191;49.548;8.658;2022-08-19T12:37:27;100002.97;;;31.72;32.95
29121;BME280;16191;49.548;8.658;2022-08-19T12:39:54;100001.09;;;32.12;32.55
29121;BME280;16191;49.548;8.658;2022-08-19T12:42:21;100003.41;;;32.15;31.84
29121;BME280;16191;49.548;8.658;2022-08-19T12:44:49;100005.69;;;31.78;32.49
29121;BME280;16191;49.548;8.658;2022-08-19T12:47:18;100010.66;;;33.18;31.32
29121;BME280;16191;49.548;8.658;2022-08-19T12:49:45;100005.84;;;32.76;31.54
29121;BME280;16191;49.548;8.658;2022-08-19T12:52:20;100001.25;;;32.89;31.68
29121;BME280;16191;49.548;8.658;2022-08-19T12:54:50;99996.44;;;32.91;31.27
29121;BME280;16191;49.548;8.658;2022-08-19T12:57:21;100005.31;;;33.88;30.04
29121;BME280;16191;49.548;8.658;2022-08-19T12:59:53;99997.13;;;34.44;29.28
29121;BME280;16191;49.548;8.658;2022-08-19T13:02:20;100002.75;;;33.23;30.41
29121;BME280;16191;49.548;8.658;2022-08-19T13:04:47;100010.66;;;33.18;30.80
29121;BME280;16191;49.548;8.658;2022-08-19T13:07:14;100012.91;;;32.77;30.77
29121;BME280;16191;49.548;8.658;2022-08-19T13:09:40;100011.06;;;32.64;32.02
29121;BME280;16191;49.548;8.658;2022-08-19T13:12:08;100011.25;;;33.71;30.48
29121;BME280;16191;49.548;8.658;2022-08-19T13:14:39;100010.81;;;33.36;31.08
29121;BME280;16191;49.548;8.658;2022-08-19T13:17:07;100016.69;;;32.43;32.64
29121;BME280;16191;49.548;8.658;2022-08-19T13:19:36;100013.03;;;33.53;30.71